トビリシ の空港の天気 - METARとTAF

トビリシ国際空港 ( UGTB / TBS ) - ジョージア トビリシ
飛行場実況気象(Metar)
観測時間10/20 08:00 GET (10/20 04:00 UTC)
風向・風速北東 2m/s
視程10km以上
天気現象
全天の4割程度の雲 雲底高度 790m
全天を覆う雲 雲底高度 1460m
気温15℃
湿度77%
気圧1025hPa
METARUGTB 200400Z 05004KT 9999 SCT026 OVC048 15/11 Q1025 NOSIG
過去の天気等 Google飛行場航空写真 Wunderground天気予報

過去48時間のMETAR

飛行場予報(TAF)
発表時間: 10/20 03:00 GET (10/19 23:00 UTC)
予報対象時間: 20日4時 GET ~ 21日4時 GET
風向・風速北北西 3m/s
視程10km以上
全天の4割程度の雲 雲底高度 1370m
全天の8割程度の積乱雲 雲底高度 1680m
20日4時 GET ~ 20日8時 GET に 確率 40% で一時的に
天気現象しゅう雨
全天の8割程度の積乱雲 雲底高度 1070m
20日16時 GET ~ 21日1時 GET に一時的に
風向・風速南南東 5m/s
天気現象しゅう雨
全天の4割程度の雲 雲底高度 760m
全天の8割程度の積乱雲 雲底高度 910m
TAF UGTB 192300Z 2000/2024 34006KT 9999 SCT045 BKN055CB TX23/2011Z TN14/2002Z
PROB40 TEMPO 2000/2004 SHRA BKN035CB
TEMPO 2012/2021 16010KT SHRA SCT025 BKN030CB